Time;durP1;ratioP1;P1;durP2;ratioP2;P2;SDS_P1;SDS_P2;PMS_P1;PMS_P2;Temp;Humidity;BMP_temperature;BMP_pressure;BME280_temperature;BME280_humidity;BME280_pressure;Samples;Min_cycle;Max_cycle;Signal;HPM_P1;HPM_P2
2022/04/04 00:01:24;;;;;;;2.97;1.70;;;17.90;35.80;;;;;;5058418;28;20224;-57
2022/04/04 00:03:49;;;;;;;1.60;1.50;;;17.90;35.80;;;;;;5062963;28;20225;-59
2022/04/04 00:06:15;;;;;;;1.50;1.33;;;17.80;35.80;;;;;;5063634;28;20320;-57
2022/04/04 00:08:41;;;;;;;1.47;1.37;;;17.80;35.80;;;;;;5058117;28;20252;-57
2022/04/04 00:11:06;;;;;;;1.50;1.40;;;17.80;35.80;;;;;;5065420;28;20218;-57
2022/04/04 00:13:32;;;;;;;1.47;1.37;;;17.80;35.80;;;;;;5055745;28;20222;-57
2022/04/04 00:15:58;;;;;;;1.33;1.23;;;17.80;35.70;;;;;;5058872;28;20662;-58
2022/04/04 00:18:23;;;;;;;1.33;1.23;;;17.80;35.80;;;;;;5063452;28;20232;-57
2022/04/04 00:20:52;;;;;;;1.50;1.40;;;17.80;35.80;;;;;;5052806;28;20546;-58
2022/04/04 00:23:18;;;;;;;1.50;1.40;;;17.80;35.80;;;;;;5062195;28;20222;-57
2022/04/04 00:25:45;;;;;;;1.50;1.40;;;17.80;35.80;;;;;;5062747;28;20471;-58
2022/04/04 00:28:12;;;;;;;1.30;1.20;;;17.80;35.80;;;;;;5060831;28;20456;-57
2022/04/04 00:30:38;;;;;;;1.63;1.53;;;17.90;35.80;;;;;;5058729;28;20502;-59
2022/04/04 00:33:05;;;;;;;1.40;1.30;;;17.80;35.80;;;;;;5064423;28;20456;-57
2022/04/04 00:35:31;;;;;;;1.30;1.20;;;17.80;35.80;;;;;;5059426;28;20417;-57
2022/04/04 00:37:59;;;;;;;1.40;1.30;;;17.80;35.80;;;;;;5059606;28;20451;-57
2022/04/04 00:40:25;;;;;;;1.47;1.37;;;17.80;35.80;;;;;;5064783;28;20432;-57
2022/04/04 00:42:51;;;;;;;1.20;1.10;;;17.80;35.80;;;;;;5060460;28;20454;-57
2022/04/04 00:45:17;;;;;;;1.30;1.20;;;17.80;35.80;;;;;;5059726;28;20457;-57
2022/04/04 00:47:43;;;;;;;1.40;1.30;;;17.80;35.80;;;;;;5061733;28;20441;-58
2022/04/04 00:50:09;;;;;;;1.60;1.50;;;17.80;35.90;;;;;;5062950;28;20701;-58
2022/04/04 00:52:34;;;;;;;1.43;1.33;;;17.80;35.80;;;;;;5058336;28;20225;-56
2022/04/04 00:55:00;;;;;;;1.47;1.37;;;17.80;35.80;;;;;;5063821;28;20913;-57
2022/04/04 00:57:27;;;;;;;1.40;1.30;;;17.80;35.90;;;;;;5060422;28;20237;-57
2022/04/04 00:59:53;;;;;;;1.50;1.40;;;17.80;35.80;;;;;;5056372;28;20307;-57
2022/04/04 01:02:19;;;;;;;1.30;1.20;;;17.80;35.80;;;;;;5063207;28;20480;-58
2022/04/04 01:04:45;;;;;;;1.40;1.30;;;17.80;35.80;;;;;;5058807;28;21052;-58
2022/04/04 01:07:10;;;;;;;1.30;1.20;;;17.80;35.80;;;;;;5059693;28;20244;-56
2022/04/04 01:09:36;;;;;;;1.30;1.20;;;17.80;35.80;;;;;;5059253;28;20213;-59
2022/04/04 01:12:09;;;;;;;1.67;1.57;;;17.80;35.90;;;;;;5062446;28;20252;-57
2022/04/04 01:14:46;;;;;;;1.57;1.47;;;17.80;35.90;;;;;;5058641;28;20675;-58
2022/04/04 01:17:12;;;;;;;1.20;1.10;;;17.80;35.80;;;;;;5058833;28;20579;-59
2022/04/04 01:19:37;;;;;;;1.83;1.20;;;17.80;35.90;;;;;;5062208;28;20557;-57
2022/04/04 01:22:07;;;;;;;1.50;1.40;;;17.80;35.90;;;;;;5061217;28;20433;-58
2022/04/04 01:24:33;;;;;;;1.37;1.27;;;17.80;35.90;;;;;;5061222;28;20335;-58
2022/04/04 01:26:58;;;;;;;1.43;1.33;;;17.80;35.80;;;;;;5061374;28;21054;-59
2022/04/04 01:29:24;;;;;;;1.60;1.20;;;17.80;35.80;;;;;;5059973;28;20457;-57
2022/04/04 01:31:51;;;;;;;1.43;1.33;;;17.80;35.90;;;;;;5059346;28;20207;-58
2022/04/04 01:34:21;;;;;;;1.13;1.10;;;17.80;35.90;;;;;;5058265;28;20226;-57
2022/04/04 01:36:46;;;;;;;1.40;1.30;;;17.80;35.90;;;;;;5056265;28;20515;-57
2022/04/04 01:39:12;;;;;;;1.30;1.20;;;17.80;35.90;;;;;;5062112;28;20483;-57
2022/04/04 01:41:38;;;;;;;2.80;1.17;;;17.80;35.90;;;;;;5061364;28;20216;-58
2022/04/04 01:44:04;;;;;;;1.30;1.20;;;17.80;35.90;;;;;;5063559;28;20816;-58
2022/04/04 01:46:29;;;;;;;1.40;1.30;;;17.80;35.90;;;;;;5063107;28;20250;-57
2022/04/04 01:48:58;;;;;;;1.40;1.30;;;17.80;35.90;;;;;;5064786;28;20460;-57
2022/04/04 01:51:25;;;;;;;1.20;1.10;;;17.80;35.90;;;;;;5062754;28;20601;-57
2022/04/04 01:53:51;;;;;;;1.43;1.33;;;17.80;35.90;;;;;;5066675;28;20529;-59
2022/04/04 01:56:17;;;;;;;3.00;1.20;;;17.80;35.90;;;;;;5066542;28;20571;-58
2022/04/04 01:58:43;;;;;;;1.50;1.40;;;17.80;36.00;;;;;;5064079;28;20679;-57
2022/04/04 02:01:17;;;;;;;2.40;1.30;;;17.80;35.90;;;;;;5065122;28;20786;-57
2022/04/04 02:03:45;;;;;;;1.40;1.30;;;17.80;35.90;;;;;;5062785;28;21120;-58
2022/04/04 02:06:11;;;;;;;1.27;1.17;;;17.80;35.90;;;;;;5060345;28;20451;-57
2022/04/04 02:08:37;;;;;;;1.57;1.40;;;17.80;35.90;;;;;;5063700;28;20417;-57
2022/04/04 02:11:04;;;;;;;1.40;1.30;;;17.80;35.90;;;;;;5062403;28;20232;-58
2022/04/04 02:13:30;;;;;;;1.40;1.30;;;17.80;35.90;;;;;;5058807;28;20252;-57
2022/04/04 02:15:58;;;;;;;1.40;1.30;;;17.80;35.90;;;;;;5067881;28;20917;-58
2022/04/04 02:18:24;;;;;;;1.20;1.10;;;17.80;35.90;;;;;;5062234;28;20446;-58
2022/04/04 02:20:50;;;;;;;1.33;1.23;;;17.80;35.90;;;;;;5061100;28;20446;-57
2022/04/04 02:23:18;;;;;;;1.20;1.10;;;17.80;35.90;;;;;;5063933;28;20425;-58
2022/04/04 02:25:45;;;;;;;1.30;1.20;;;17.80;35.90;;;;;;5063305;28;20587;-58
2022/04/04 02:28:11;;;;;;;1.27;1.17;;;17.80;35.90;;;;;;5063192;28;20417;-58
2022/04/04 02:30:37;;;;;;;1.77;1.23;;;17.80;35.90;;;;;;5065332;28;20446;-57
2022/04/04 02:33:03;;;;;;;1.30;1.20;;;17.80;35.90;;;;;;5063718;28;20451;-58
2022/04/04 02:35:29;;;;;;;1.30;1.20;;;17.80;35.90;;;;;;5067101;28;20225;-57
2022/04/04 02:37:55;;;;;;;1.33;1.23;;;17.80;35.90;;;;;;5063410;28;20900;-57
2022/04/04 02:40:21;;;;;;;2.13;1.30;;;17.80;35.90;;;;;;5064462;28;20698;-60
2022/04/04 02:42:47;;;;;;;1.27;1.13;;;17.80;35.90;;;;;;5062039;28;20467;-57
2022/04/04 02:45:13;;;;;;;1.20;1.10;;;17.80;35.90;;;;;;5062432;28;20230;-59
2022/04/04 02:47:39;;;;;;;1.30;1.20;;;17.80;35.90;;;;;;5065020;28;20418;-57
2022/04/04 02:50:06;;;;;;;1.40;1.30;;;17.80;35.90;;;;;;5060132;28;20421;-58
2022/04/04 02:52:32;;;;;;;1.20;1.10;;;17.80;36.00;;;;;;5067775;28;20417;-57
2022/04/04 02:54:58;;;;;;;1.37;1.27;;;17.80;35.90;;;;;;5065456;28;20421;-58
2022/04/04 02:57:23;;;;;;;1.30;1.20;;;17.70;35.80;;;;;;5064729;28;20256;-57
2022/04/04 02:59:49;;;;;;;1.30;1.10;;;17.70;35.80;;;;;;5061958;28;20449;-57
2022/04/04 03:02:15;;;;;;;1.40;1.30;;;17.80;35.90;;;;;;5066421;28;20253;-59
2022/04/04 03:04:42;;;;;;;1.27;1.17;;;17.70;35.80;;;;;;5062995;28;20265;-57
2022/04/04 03:07:09;;;;;;;1.20;1.10;;;17.80;35.90;;;;;;5062165;28;20319;-58
2022/04/04 03:09:35;;;;;;;1.20;1.10;;;17.80;35.90;;;;;;5066093;28;20418;-57
2022/04/04 03:12:01;;;;;;;1.50;1.40;;;17.70;35.80;;;;;;5058829;28;20465;-58
2022/04/04 03:14:28;;;;;;;1.67;1.57;;;17.80;35.90;;;;;;5060441;28;20267;-59
2022/04/04 03:16:54;;;;;;;1.10;1.00;;;17.80;35.90;;;;;;5063209;28;20564;-56
2022/04/04 03:19:20;;;;;;;1.40;1.30;;;17.80;35.90;;;;;;5062344;28;20447;-57
2022/04/04 03:21:45;;;;;;;1.40;1.30;;;17.70;35.80;;;;;;5059906;28;20242;-58
2022/04/04 03:24:11;;;;;;;3.33;1.10;;;17.80;35.90;;;;;;5063621;28;20280;-57
2022/04/04 03:26:37;;;;;;;1.20;1.10;;;17.80;35.90;;;;;;5060701;28;20233;-58
2022/04/04 03:29:03;;;;;;;1.50;1.40;;;17.80;35.90;;;;;;5057463;28;20581;-57
2022/04/04 03:31:28;;;;;;;1.30;1.20;;;17.80;35.90;;;;;;5064355;28;20213;-57
2022/04/04 03:33:54;;;;;;;1.40;1.20;;;17.80;35.90;;;;;;5068025;28;20240;-57
2022/04/04 03:36:21;;;;;;;1.40;1.23;;;17.80;35.90;;;;;;5064915;28;20334;-57
2022/04/04 03:38:47;;;;;;;1.20;1.10;;;17.80;35.90;;;;;;5061722;28;20225;-57
2022/04/04 03:41:13;;;;;;;1.20;1.10;;;17.80;35.90;;;;;;5059704;28;20450;-58
2022/04/04 03:43:39;;;;;;;1.30;1.20;;;17.80;35.90;;;;;;5059638;28;20418;-58
2022/04/04 03:46:04;;;;;;;1.30;1.20;;;17.80;35.90;;;;;;5061645;28;20230;-57
2022/04/04 03:48:30;;;;;;;1.50;1.40;;;17.80;35.80;;;;;;5061891;28;20217;-57
2022/04/04 03:50:56;;;;;;;1.90;1.80;;;17.80;35.80;;;;;;5062930;28;20250;-57
2022/04/04 03:53:22;;;;;;;1.20;1.10;;;17.80;35.80;;;;;;5063611;28;20272;-58
2022/04/04 03:55:48;;;;;;;1.30;1.20;;;17.80;35.80;;;;;;5065315;28;20221;-58
2022/04/04 03:58:14;;;;;;;1.30;1.20;;;17.80;35.80;;;;;;5059924;28;20417;-58
2022/04/04 04:00:40;;;;;;;1.30;1.20;;;17.80;35.90;;;;;;5060946;28;20755;-58
2022/04/04 04:03:07;;;;;;;1.20;1.10;;;17.80;35.80;;;;;;5060491;28;20363;-58
2022/04/04 04:05:33;;;;;;;1.27;1.17;;;17.80;35.80;;;;;;5058818;28;20490;-58
2022/04/04 04:07:59;;;;;;;1.30;1.20;;;17.80;35.80;;;;;;5061534;28;20917;-58
2022/04/04 04:10:24;;;;;;;1.30;1.20;;;17.80;35.80;;;;;;5061024;28;20462;-58
2022/04/04 04:12:50;;;;;;;1.30;1.20;;;17.80;35.80;;;;;;5061750;28;20223;-58
2022/04/04 04:15:23;;;;;;;1.40;1.30;;;17.80;35.80;;;;;;5060124;28;20580;-57
2022/04/04 04:17:52;;;;;;;1.20;1.10;;;17.80;35.80;;;;;;5061427;28;20222;-58
2022/04/04 04:20:19;;;;;;;1.20;1.10;;;17.80;35.80;;;;;;5057517;28;20430;-58
2022/04/04 04:22:58;;;;;;;1.83;1.30;;;17.80;35.80;;;;;;5061086;28;20914;-59
2022/04/04 04:25:27;;;;;;;1.20;1.10;;;17.80;35.80;;;;;;5059946;28;20866;-57
2022/04/04 04:27:53;;;;;;;1.20;1.10;;;17.80;35.80;;;;;;5060062;28;20426;-57
2022/04/04 04:30:19;;;;;;;1.30;1.20;;;17.80;35.80;;;;;;5061677;28;20436;-57
2022/04/04 04:32:48;;;;;;;1.20;1.10;;;17.70;35.70;;;;;;5066413;28;20409;-58
2022/04/04 04:35:15;;;;;;;1.20;1.10;;;17.80;35.80;;;;;;5059004;28;20226;-57
2022/04/04 04:37:41;;;;;;;1.30;1.20;;;17.80;35.80;;;;;;5063426;28;20448;-57
2022/04/04 04:40:08;;;;;;;2.50;1.27;;;17.80;35.80;;;;;;5061460;28;20425;-59
2022/04/04 04:42:34;;;;;;;1.27;1.17;;;17.80;35.80;;;;;;5055159;28;20938;-57
2022/04/04 04:45:03;;;;;;;1.40;1.30;;;17.80;35.90;;;;;;5061955;28;20451;-56
2022/04/04 04:47:29;;;;;;;1.63;1.20;;;17.80;35.60;;;;;;5057526;28;20432;-58
2022/04/04 04:49:55;;;;;;;1.13;1.03;;;17.90;35.60;;;;;;5055781;28;20432;-61
2022/04/04 04:52:20;;;;;;;1.20;1.10;;;17.90;35.50;;;;;;5061946;28;20443;-57
2022/04/04 04:54:46;;;;;;;1.30;1.20;;;17.90;35.50;;;;;;5061564;28;20221;-57
2022/04/04 04:57:15;;;;;;;2.30;1.00;;;17.90;35.40;;;;;;5057560;28;20229;-60
2022/04/04 04:59:41;;;;;;;1.47;1.37;;;17.90;35.40;;;;;;5058071;28;20656;-58
2022/04/04 05:02:07;;;;;;;1.50;1.10;;;17.90;35.40;;;;;;5061878;28;21209;-57
2022/04/04 05:04:32;;;;;;;1.30;1.20;;;17.90;35.40;;;;;;5064152;28;20711;-59
2022/04/04 05:06:58;;;;;;;1.40;1.30;;;17.90;35.40;;;;;;5061125;28;20248;-59
2022/04/04 05:09:23;;;;;;;1.20;1.10;;;17.90;35.40;;;;;;5062971;28;20222;-58
2022/04/04 05:11:49;;;;;;;1.20;1.10;;;18.00;35.50;;;;;;5061794;28;20272;-58
2022/04/04 05:14:17;;;;;;;1.37;1.10;;;17.90;35.40;;;;;;5058714;28;20218;-58
2022/04/04 05:16:44;;;;;;;1.63;1.53;;;17.90;35.40;;;;;;5059618;28;20230;-60
2022/04/04 05:19:11;;;;;;;1.37;1.23;;;17.90;35.40;;;;;;5055127;28;20945;-60
2022/04/04 05:21:38;;;;;;;1.10;1.00;;;17.90;35.40;;;;;;5058790;28;20421;-61
2022/04/04 05:24:07;;;;;;;1.90;1.20;;;17.90;35.30;;;;;;5060061;28;20841;-58
2022/04/04 05:26:33;;;;;;;1.20;1.10;;;17.90;35.30;;;;;;5056230;28;20521;-60
2022/04/04 05:28:59;;;;;;;4.30;1.30;;;17.90;35.40;;;;;;5061096;28;20418;-59
2022/04/04 05:31:25;;;;;;;2.60;1.30;;;18.00;35.40;;;;;;5061862;28;20226;-58
2022/04/04 05:33:51;;;;;;;1.23;1.13;;;18.00;35.40;;;;;;5063851;28;20440;-60
2022/04/04 05:36:17;;;;;;;1.43;1.33;;;18.00;35.50;;;;;;5059202;28;20252;-58
2022/04/04 05:38:42;;;;;;;1.30;1.20;;;18.00;35.40;;;;;;5064609;28;20709;-60
2022/04/04 05:41:09;;;;;;;1.63;1.40;;;18.00;35.40;;;;;;5055562;28;20226;-60
2022/04/04 05:43:35;;;;;;;1.50;1.40;;;18.00;35.30;;;;;;5063895;28;20221;-58
2022/04/04 05:46:01;;;;;;;2.30;1.50;;;17.90;35.30;;;;;;5064312;28;20471;-58
2022/04/04 05:48:30;;;;;;;1.43;1.33;;;18.00;35.50;;;;;;5060254;28;20911;-58
2022/04/04 05:50:56;;;;;;;2.30;1.10;;;18.00;35.30;;;;;;5059649;28;20256;-58
2022/04/04 05:53:22;;;;;;;1.93;1.40;;;18.00;35.30;;;;;;5060039;28;20450;-58
2022/04/04 05:55:47;;;;;;;1.53;1.43;;;18.00;35.40;;;;;;5057623;28;20464;-59
2022/04/04 05:58:13;;;;;;;1.73;1.10;;;18.00;35.40;;;;;;5054076;28;20219;-59
2022/04/04 06:00:39;;;;;;;3.03;1.30;;;18.00;35.40;;;;;;5061313;28;20573;-58
2022/04/04 06:03:04;;;;;;;1.57;1.30;;;18.00;35.40;;;;;;5057790;28;20873;-59
2022/04/04 06:05:30;;;;;;;1.23;1.13;;;18.00;35.40;;;;;;5047207;28;20246;-60
2022/04/04 06:07:56;;;;;;;1.40;1.30;;;18.00;35.30;;;;;;5060363;28;20230;-59
2022/04/04 06:10:21;;;;;;;1.50;1.17;;;18.00;35.30;;;;;;5058484;28;20226;-62
2022/04/04 06:12:47;;;;;;;2.17;1.40;;;18.00;35.40;;;;;;5057566;28;20245;-59
2022/04/04 06:15:15;;;;;;;1.10;1.00;;;18.00;35.40;;;;;;5062012;28;20230;-59
2022/04/04 06:17:42;;;;;;;1.20;1.10;;;18.00;35.40;;;;;;5062232;28;20237;-61
2022/04/04 06:20:11;;;;;;;1.30;1.20;;;18.00;35.40;;;;;;5057440;28;20470;-61
2022/04/04 06:22:38;;;;;;;1.40;1.30;;;18.00;35.50;;;;;;5062188;28;20497;-58
2022/04/04 06:25:07;;;;;;;1.63;1.40;;;18.00;35.30;;;;;;5066994;28;20516;-58
2022/04/04 06:27:33;;;;;;;2.33;1.70;;;18.00;35.40;;;;;;5057376;28;20455;-58
2022/04/04 06:29:59;;;;;;;1.80;1.40;;;18.00;35.40;;;;;;5061917;28;20446;-58
2022/04/04 06:32:25;;;;;;;1.60;1.50;;;18.00;35.30;;;;;;5064017;28;20425;-57
2022/04/04 06:34:51;;;;;;;1.87;1.20;;;18.00;35.30;;;;;;5061949;28;20222;-58
2022/04/04 06:37:17;;;;;;;1.30;1.20;;;18.00;35.30;;;;;;5065713;28;20845;-57
2022/04/04 06:39:43;;;;;;;1.27;1.17;;;18.00;35.30;;;;;;5061901;28;20245;-62
2022/04/04 06:42:08;;;;;;;1.47;1.37;;;18.00;35.30;;;;;;5063997;28;20638;-59
2022/04/04 06:44:34;;;;;;;2.83;1.27;;;18.00;35.30;;;;;;5067484;28;20429;-61
2022/04/04 06:47:00;;;;;;;1.60;1.27;;;18.00;35.30;;;;;;5061090;28;20238;-59
2022/04/04 06:49:26;;;;;;;3.10;1.20;;;18.00;35.30;;;;;;5064465;28;23580;-59
2022/04/04 06:51:52;;;;;;;1.20;1.10;;;18.00;35.30;;;;;;5062714;28;20232;-58
2022/04/04 06:54:19;;;;;;;1.50;1.30;;;18.00;35.30;;;;;;5063841;28;20509;-60
2022/04/04 06:56:47;;;;;;;1.33;1.23;;;18.00;35.30;;;;;;5057407;28;20937;-57
2022/04/04 06:59:13;;;;;;;1.30;1.20;;;18.00;35.30;;;;;;5062657;28;20992;-60
2022/04/04 07:01:38;;;;;;;1.63;1.30;;;18.00;35.20;;;;;;5064288;28;20894;-61
2022/04/04 07:04:04;;;;;;;1.20;1.10;;;18.00;35.20;;;;;;5065796;28;20582;-60
2022/04/04 07:06:30;;;;;;;1.10;1.00;;;18.00;35.20;;;;;;5062137;28;20237;-59
2022/04/04 07:08:56;;;;;;;4.70;2.53;;;18.00;35.20;;;;;;5063478;28;20237;-58
2022/04/04 07:11:22;;;;;;;1.30;1.20;;;18.00;35.20;;;;;;5057191;28;20229;-59
2022/04/04 07:13:49;;;;;;;1.10;1.00;;;18.00;36.00;;;;;;5062393;28;20219;-58
2022/04/04 07:16:15;;;;;;;2.27;1.40;;;18.00;35.30;;;;;;5060889;28;20263;-58
2022/04/04 07:18:41;;;;;;;1.30;1.20;;;18.00;35.30;;;;;;5060936;28;20501;-59
2022/04/04 07:21:06;;;;;;;1.20;1.10;;;18.00;35.30;;;;;;5066436;28;20533;-59
2022/04/04 07:23:32;;;;;;;1.37;1.27;;;18.00;35.20;;;;;;5064375;28;20232;-58
2022/04/04 07:25:58;;;;;;;1.10;1.00;;;18.00;35.20;;;;;;5062185;28;20248;-58
2022/04/04 07:28:24;;;;;;;1.40;1.00;;;18.00;35.20;;;;;;5062332;28;20262;-61
2022/04/04 07:30:52;;;;;;;1.37;1.27;;;18.00;35.20;;;;;;5062924;28;20978;-58
2022/04/04 07:33:18;;;;;;;1.20;1.10;;;18.00;35.20;;;;;;5055422;28;20306;-61
2022/04/04 07:35:45;;;;;;;1.40;1.30;;;18.00;35.20;;;;;;5060261;28;20491;-59
2022/04/04 07:38:11;;;;;;;1.17;1.07;;;18.00;35.20;;;;;;5061655;28;20768;-57
2022/04/04 07:40:37;;;;;;;1.87;1.10;;;18.00;35.20;;;;;;5061382;28;20434;-62
2022/04/04 07:43:03;;;;;;;2.57;1.10;;;18.00;35.20;;;;;;5062371;28;20994;-59
2022/04/04 07:45:30;;;;;;;1.43;1.17;;;18.00;35.20;;;;;;5064741;28;20318;-57
2022/04/04 07:47:57;;;;;;;1.40;1.30;;;18.00;35.20;;;;;;5064971;28;20225;-59
2022/04/04 07:50:23;;;;;;;2.03;1.10;;;18.00;35.20;;;;;;5064429;28;20934;-60
2022/04/04 07:52:49;;;;;;;1.57;1.27;;;18.00;35.20;;;;;;5064664;28;20436;-60
2022/04/04 07:55:15;;;;;;;1.40;1.30;;;18.00;35.10;;;;;;5058441;28;20491;-59
2022/04/04 07:57:41;;;;;;;1.60;1.50;;;18.00;35.10;;;;;;5064404;28;20518;-58
2022/04/04 08:00:14;;;;;;;1.33;1.23;;;18.00;35.00;;;;;;5063316;28;20218;-58
2022/04/04 08:02:40;;;;;;;5.80;1.40;;;18.00;35.00;;;;;;5059765;28;20418;-58
2022/04/04 08:05:07;;;;;;;1.20;1.10;;;18.00;35.00;;;;;;5060698;28;20438;-57
2022/04/04 08:07:32;;;;;;;1.30;1.20;;;18.00;35.10;;;;;;5060786;28;20460;-59
2022/04/04 08:09:58;;;;;;;2.03;1.37;;;18.00;35.00;;;;;;5061411;28;20422;-57
2022/04/04 08:12:27;;;;;;;2.20;1.20;;;18.00;35.00;;;;;;5057496;28;20218;-59
2022/04/04 08:14:53;;;;;;;1.63;1.20;;;18.00;35.20;;;;;;5064592;28;20355;-57
2022/04/04 08:17:19;;;;;;;5.07;1.50;;;18.00;35.00;;;;;;5056877;28;20541;-58
2022/04/04 08:19:44;;;;;;;2.07;1.47;;;18.00;35.00;;;;;;5058880;28;20220;-59
2022/04/04 08:22:10;;;;;;;110.40;5.47;;;18.00;35.00;;;;;;5063529;28;20217;-58
2022/04/04 08:24:36;;;;;;;3.20;0.97;;;18.00;34.90;;;;;;5060553;28;20580;-57
2022/04/04 08:27:01;;;;;;;2.50;0.97;;;18.10;34.90;;;;;;5061273;28;20249;-58
2022/04/04 08:29:27;;;;;;;1.70;1.10;;;18.10;34.90;;;;;;5063609;28;20309;-58
2022/04/04 08:31:53;;;;;;;2.20;1.10;;;18.10;34.90;;;;;;5063460;28;20302;-59
2022/04/04 08:34:19;;;;;;;1.57;1.13;;;18.10;35.00;;;;;;5060275;28;20222;-58
2022/04/04 08:36:45;;;;;;;1.40;1.10;;;18.00;34.90;;;;;;5061304;28;20421;-60
2022/04/04 08:39:11;;;;;;;1.57;1.47;;;18.00;34.90;;;;;;5062176;28;20438;-58
2022/04/04 08:41:38;;;;;;;1.20;1.10;;;18.00;34.90;;;;;;5061230;28;20686;-59
2022/04/04 08:44:04;;;;;;;1.30;1.20;;;18.00;34.90;;;;;;5061285;28;20225;-61
2022/04/04 08:46:33;;;;;;;1.30;0.90;;;18.00;35.00;;;;;;5061401;28;21028;-60
2022/04/04 08:48:59;;;;;;;1.27;0.97;;;18.00;35.00;;;;;;5055245;28;20430;-58
2022/04/04 08:51:26;;;;;;;2.13;1.70;;;18.00;34.90;;;;;;5065699;28;20943;-58
2022/04/04 08:53:53;;;;;;;3.00;1.30;;;18.00;35.00;;;;;;5060050;28;20440;-58
2022/04/04 08:56:22;;;;;;;1.07;0.87;;;18.00;34.90;;;;;;5062842;28;20798;-57
2022/04/04 08:58:47;;;;;;;2.00;1.50;;;18.00;34.90;;;;;;5061074;28;20458;-61
2022/04/04 09:01:13;;;;;;;1.13;0.90;;;18.00;35.00;;;;;;5065826;28;20486;-58
2022/04/04 09:03:38;;;;;;;5.43;2.07;;;18.00;34.90;;;;;;5057908;28;20233;-58
2022/04/04 09:06:05;;;;;;;1.10;1.00;;;18.00;34.90;;;;;;5060653;28;20249;-59
2022/04/04 09:08:47;;;;;;;2.00;1.00;;;18.00;34.90;;;;;;5058905;28;20246;-58
2022/04/04 09:11:14;;;;;;;1.90;1.00;;;18.00;34.90;;;;;;5057784;28;20485;-59
2022/04/04 09:13:40;;;;;;;1.00;0.90;;;18.00;34.90;;;;;;5061801;28;20433;-58
2022/04/04 09:16:08;;;;;;;1.10;1.00;;;18.00;34.90;;;;;;5062128;28;20432;-59
2022/04/04 09:18:42;;;;;;;1.20;1.10;;;18.00;34.90;;;;;;5063422;28;20449;-58
2022/04/04 09:21:11;;;;;;;1.30;1.20;;;18.00;34.90;;;;;;5059646;28;20468;-60
2022/04/04 09:23:46;;;;;;;1.00;0.90;;;18.00;34.90;;;;;;5062055;28;20450;-58
2022/04/04 09:26:40;;;;;;;1.07;0.97;;;18.00;34.90;;;;;;5057423;28;20469;-60
2022/04/04 09:29:17;;;;;;;1.10;1.00;;;18.00;34.90;;;;;;5061907;28;20524;-58
2022/04/04 09:32:05;;;;;;;1.10;1.00;;;18.00;34.90;;;;;;5060811;28;20833;-60
2022/04/04 09:34:54;;;;;;;1.10;1.00;;;18.00;34.90;;;;;;5062225;28;20424;-60
2022/04/04 09:37:21;;;;;;;1.60;1.00;;;18.00;34.90;;;;;;5060848;28;20960;-58
2022/04/04 09:39:48;;;;;;;0.80;0.80;;;18.00;34.90;;;;;;5056981;28;20426;-58
2022/04/04 09:42:16;;;;;;;0.97;0.90;;;18.00;34.90;;;;;;5056730;28;20441;-58
2022/04/04 09:44:55;;;;;;;1.20;1.00;;;18.00;34.90;;;;;;5059462;28;20487;-59
2022/04/04 09:47:20;;;;;;;1.00;0.90;;;18.00;34.90;;;;;;5057609;28;21136;-58
2022/04/04 09:49:46;;;;;;;1.00;0.90;;;18.00;34.90;;;;;;5058715;28;20466;-59
2022/04/04 09:52:12;;;;;;;0.90;0.80;;;18.00;35.30;;;;;;5063278;28;20218;-58
2022/04/04 09:54:42;;;;;;;1.00;0.90;;;18.00;34.90;;;;;;5062222;28;20219;-60
2022/04/04 09:57:13;;;;;;;1.30;1.00;;;18.00;34.90;;;;;;5061882;28;20233;-59
2022/04/04 09:59:39;;;;;;;1.10;0.90;;;18.00;34.90;;;;;;5064254;28;20520;-59
2022/04/04 10:02:05;;;;;;;1.27;1.17;;;18.00;34.90;;;;;;5056208;28;20434;-60
2022/04/04 10:04:32;;;;;;;1.23;1.13;;;17.90;34.80;;;;;;5062127;28;20429;-59
2022/04/04 10:07:01;;;;;;;1.00;0.90;;;17.90;34.80;;;;;;5064093;28;20277;-60
2022/04/04 10:09:28;;;;;;;1.10;1.00;;;17.90;34.80;;;;;;5060352;28;20421;-58
2022/04/04 10:11:54;;;;;;;1.13;1.00;;;17.90;34.70;;;;;;5064904;28;20464;-59
2022/04/04 10:14:20;;;;;;;1.23;1.13;;;18.00;34.80;;;;;;5064002;28;20428;-59
2022/04/04 10:16:47;;;;;;;1.10;1.00;;;17.90;34.70;;;;;;5060825;28;20425;-60
2022/04/04 10:19:14;;;;;;;0.97;0.90;;;18.00;35.60;;;;;;5064045;28;20221;-59
2022/04/04 10:21:40;;;;;;;1.10;1.00;;;17.90;34.80;;;;;;5060198;28;20421;-59
2022/04/04 10:24:09;;;;;;;1.00;0.93;;;17.90;34.80;;;;;;5062106;28;20446;-64
2022/04/04 10:26:36;;;;;;;1.20;1.00;;;17.90;34.70;;;;;;5062097;28;20230;-61
2022/04/04 10:29:11;;;;;;;1.10;1.00;;;17.90;34.70;;;;;;5064052;28;20444;-58
2022/04/04 10:31:51;;;;;;;1.10;1.00;;;17.90;34.70;;;;;;5057144;28;21040;-58
2022/04/04 10:34:19;;;;;;;1.27;1.10;;;17.90;34.80;;;;;;5060037;28;20421;-59
2022/04/04 10:37:02;;;;;;;1.10;0.83;;;17.90;34.70;;;;;;5064486;28;20441;-60
2022/04/04 10:39:31;;;;;;;1.00;0.90;;;17.90;34.80;;;;;;5060291;28;20433;-60
2022/04/04 10:41:57;;;;;;;1.03;0.93;;;17.90;34.80;;;;;;5059644;28;20488;-59
2022/04/04 10:44:46;;;;;;;1.10;1.00;;;17.90;34.80;;;;;;5061186;28;20461;-59
2022/04/04 10:47:23;;;;;;;1.00;0.90;;;17.90;34.80;;;;;;5057707;28;20222;-58
2022/04/04 10:49:49;;;;;;;1.30;1.10;;;17.90;34.80;;;;;;5064046;28;20452;-59
2022/04/04 10:52:19;;;;;;;1.43;0.97;;;17.90;34.90;;;;;;5065579;28;20429;-59
2022/04/04 10:54:46;;;;;;;1.50;1.10;;;17.90;34.90;;;;;;5064119;28;20436;-59
2022/04/04 10:57:18;;;;;;;1.10;1.00;;;17.90;34.90;;;;;;5062963;28;20440;-60
2022/04/04 10:59:48;;;;;;;1.20;1.10;;;17.90;35.00;;;;;;5062520;28;20528;-60
2022/04/04 11:02:18;;;;;;;1.00;1.00;;;17.90;35.00;;;;;;5061178;28;20811;-59
2022/04/04 11:07:39;;;;;;;0.90;0.90;;;17.90;35.00;;;;;;5058313;28;20436;-60
2022/04/04 11:10:06;;;;;;;1.20;1.10;;;17.90;35.10;;;;;;5065599;28;20465;-58
2022/04/04 11:13:05;;;;;;;1.10;1.00;;;17.90;35.10;;;;;;5063160;28;20501;-59
2022/04/04 11:15:51;;;;;;;1.53;1.20;;;17.90;35.00;;;;;;5059280;28;20418;-59
2022/04/04 11:18:20;;;;;;;1.20;1.07;;;17.90;35.10;;;;;;5059769;28;20426;-59
2022/04/04 11:20:59;;;;;;;4.53;1.30;;;17.90;35.10;;;;;;5064632;28;20478;-59
2022/04/04 11:23:34;;;;;;;2.13;1.00;;;17.90;35.20;;;;;;5060072;28;20225;-59
2022/04/04 11:26:01;;;;;;;1.60;1.20;;;17.90;35.20;;;;;;5061493;28;20467;-58
2022/04/04 11:28:31;;;;;;;1.30;1.13;;;17.90;35.20;;;;;;5063989;28;20439;-59
2022/04/04 11:31:08;;;;;;;1.70;1.10;;;17.90;35.20;;;;;;5060547;28;20558;-60
2022/04/04 11:33:45;;;;;;;1.07;0.97;;;17.90;35.20;;;;;;5060619;28;20751;-60
2022/04/04 11:36:32;;;;;;;1.10;1.00;;;17.90;35.20;;;;;;5062580;28;20427;-59
2022/04/04 11:39:08;;;;;;;1.30;1.10;;;17.90;35.20;;;;;;5063111;28;20994;-59
2022/04/04 11:41:39;;;;;;;4.27;0.97;;;17.90;35.20;;;;;;5063041;28;20906;-59
2022/04/04 11:44:05;;;;;;;1.00;0.90;;;17.90;35.20;;;;;;5065699;28;20915;-56
2022/04/04 11:46:32;;;;;;;1.30;0.90;;;17.90;35.20;;;;;;5057594;28;20558;-57
2022/04/04 11:48:59;;;;;;;1.20;1.10;;;17.90;35.20;;;;;;5063229;28;20927;-60
2022/04/04 11:51:37;;;;;;;2.77;0.93;;;17.90;35.20;;;;;;5063720;28;20833;-61
2022/04/04 11:54:04;;;;;;;1.20;1.10;;;17.90;35.20;;;;;;5061401;28;20422;-58
2022/04/04 11:56:31;;;;;;;1.27;1.13;;;18.00;35.20;;;;;;5056369;28;20417;-58
2022/04/04 11:58:57;;;;;;;1.50;1.10;;;17.90;35.20;;;;;;5064429;28;20446;-58
2022/04/04 12:01:34;;;;;;;1.13;1.00;;;18.00;35.20;;;;;;5053985;28;20450;-59
2022/04/04 12:04:01;;;;;;;1.87;1.10;;;18.00;35.20;;;;;;5061857;28;20240;-58
2022/04/04 12:06:28;;;;;;;1.60;1.13;;;17.90;35.20;;;;;;5063777;28;20469;-59
2022/04/04 12:08:55;;;;;;;3.10;2.27;;;18.00;35.30;;;;;;5061279;28;20413;-58
2022/04/04 12:11:28;;;;;;;7.90;5.77;;;18.00;35.30;;;;;;5064062;28;20460;-58
2022/04/04 12:13:57;;;;;;;17.60;9.57;;;17.90;35.20;;;;;;5062160;28;20429;-59
2022/04/04 12:16:23;;;;;;;25.07;14.67;;;17.90;35.20;;;;;;5056528;28;20809;-60
2022/04/04 12:18:59;;;;;;;26.80;15.77;;;18.00;35.20;;;;;;5062276;28;20430;-60
2022/04/04 12:21:25;;;;;;;35.80;18.07;;;18.00;35.20;;;;;;5056157;28;20426;-59
2022/04/04 12:26:35;;;;;;;36.60;21.17;;;18.00;35.30;;;;;;5061231;28;20379;-58
2022/04/04 12:29:03;;;;;;;40.93;23.30;;;18.00;35.30;;;;;;5062971;28;20492;-58
2022/04/04 12:31:29;;;;;;;40.40;23.30;;;18.00;35.30;;;;;;5058026;28;20219;-59
2022/04/04 12:34:03;;;;;;;43.90;23.90;;;18.00;35.30;;;;;;5058603;28;20564;-60
2022/04/04 12:36:38;;;;;;;45.37;23.93;;;17.90;35.30;;;;;;5058454;28;20568;-59
2022/04/04 12:39:05;;;;;;;45.60;25.17;;;18.00;35.30;;;;;;5054758;28;20930;-59
2022/04/04 12:41:41;;;;;;;45.77;24.80;;;18.00;35.30;;;;;;5060999;28;20434;-60
2022/04/04 12:44:07;;;;;;;46.93;25.77;;;18.00;35.30;;;;;;5059544;28;20454;-59
2022/04/04 12:46:34;;;;;;;42.90;25.87;;;18.00;35.50;;;;;;5062340;28;20446;-61
2022/04/04 12:49:11;;;;;;;46.47;23.80;;;18.00;35.30;;;;;;5063382;28;20244;-59
2022/04/04 12:51:38;;;;;;;46.53;24.13;;;18.00;35.30;;;;;;5059755;28;21124;-59
2022/04/04 12:54:04;;;;;;;47.60;26.20;;;18.00;35.30;;;;;;5062467;28;20441;-58